Honey Creek, WI

7:37 AM CST on November 28, 2014 (GMT -0600)
Rochester, WI | Change Station
CLOSE
Current Station
Personal Weather Station
Location: Rochester, WI
Elevation: 780 ft
Nearby Weather Stations

Elev 780 ft 42.74 °N, 88.24 °W | Updated 1 second ago

Snow
Snow
16.5 °F
Feels Like 16 °F
N
0.7
Wind Variable Wind from SSE
Gusts 4.5 mph

Today
High -- | Low -- °F
--% Chance of Precip.
Yesterday
High -- | Low -- °F
Precip. -- in
7:00 AM 4:21 PM
Waxing Crescent, 40% visible
Pressure 30.24 in
Visibility 1.0 miles
Clouds Overcast 900 ft
Windchill 16 °F
Dew Point 10 °F
Humidity 76%
Rainfall 0.00 in
Snow Depth Not available.
UV 0 out of 12
Pollen .10 out of 12
Air Quality Not available.
Flu Activity Not available.
METAR KBUU 281315Z AUTO 14005KT 1SM -SN OVC009 M09/M10 A3024 RMK AO2 T10901102

More Conditions Fewer Conditions

Pressure 30.24 in
Visibility 1.0 miles
Clouds Overcast 900 ft
Windchill 16 °F
Dew Point 10 °F
Humidity 76%
Rainfall 0.00 in
Snow Depth Not available.
UV 0 out of 12
Pollen .10 out of 12
Air Quality Not available.
Flu Activity Not available.
METAR KBUU 281315Z AUTO 14005KT 1SM -SN OVC009 M09/M10 A3024 RMK AO2 T10901102

More Conditions Fewer Conditions

10-Day Weather Forecast

Almanac

Astronomy

Nov. 28, 2014 Rise Set
Actual Time
Civil Twilight
Nautical Twilight
Astronomical Twilight
Moon
Length of Visible Light
Length of Day
Tomorrow will be .
, % of the Moon is Illuminated

Today's Extremes

State Highs State Lows

Community

WunderPhotos

Upload Photos

1,774,210 photos uploaded!

WunderBlogs® & News

Nearby

Air Quality

  Air Quality AQ Index Pollutant
Not available.

Snow Depth

Station Depth Elevation

Earthquake Activity

City Distance Mag. Time & Date
Minimum magnitude displayed is 2.5.

Coastal Water Temperatures

Place Temperature

Nearby Weather Stations